| time (UTC) | temp C | wind direction | speed KPH | gust KPH | rain 1hr cm | rain 24hr cm | rain mn cm | humidity % | barometer mb |
| 20260505140322 | 28 | 127 | 8.0 | 16.1 | 0.00 | 0.00 | 0.00 | 84 | 1022.1 |
| 20260505130246 | 28 | 124 | 6.4 | 12.9 | 0.00 | 0.00 | 0.00 | 87 | 1021.7 |
| 20260505124736 | 27 | 148 | 9.7 | 12.9 | 0.00 | 0.00 | 0.00 | 87 | 1021.6 |
| 20260505124233 | 28 | 118 | 9.7 | 16.1 | 0.00 | 0.00 | 0.00 | 86 | 1021.5 |
| 20260505123728 | 28 | 96 | 6.4 | 11.3 | 0.00 | 0.00 | 0.00 | 85 | 1021.6 |
| 20260505123226 | 28 | 148 | 6.4 | 14.5 | 0.00 | 0.00 | 0.00 | 85 | 1021.6 |
| 20260505122722 | 28 | 123 | 3.2 | 12.9 | 0.00 | 0.00 | 0.00 | 87 | 1021.5 |
| 20260505122220 | 27 | 107 | 1.6 | 6.4 | 0.00 | 0.00 | 0.00 | 89 | 1021.5 |
| 20260505121716 | 27 | 115 | 6.4 | 11.3 | 0.00 | 0.00 | 0.00 | 88 | 1021.3 |
| 20260505121213 | 27 | 113 | 3.2 | 11.3 | 0.00 | 0.00 | 0.00 | 88 | 1021.4 |
| 20260505120709 | 27 | 103 | 3.2 | 11.3 | 0.00 | 0.00 | 0.00 | 87 | 1021.4 |
| 20260505120205 | 27 | 88 | 1.6 | 3.2 | 0.00 | 0.00 | 0.00 | 87 | 1021.2 |
| 20260505115658 | 27 | 186 | 6.4 | 11.3 | 0.00 | 0.00 | 0.00 | 87 | 1021.3 |
| 20260505115157 | 28 | 116 | 6.4 | 12.9 | 0.00 | 0.00 | 0.00 | 86 | 1021.2 |
| 20260505114654 | 28 | 116 | 6.4 | 11.3 | 0.00 | 0.00 | 0.00 | 85 | 1021.2 |
| 20260505114149 | 28 | 108 | 6.4 | 9.7 | 0.00 | 0.00 | 0.00 | 86 | 1021.2 |
| 20260505113646 | 28 | 132 | 3.2 | 6.4 | 0.00 | 0.00 | 0.00 | 87 | 1021.2 |
| 20260505113143 | 28 | 76 | 4.8 | 6.4 | 0.00 | 0.00 | 0.00 | 86 | 1021.1 |
| 20260505112639 | 28 | 104 | 0.0 | 3.2 | 0.00 | 0.00 | 0.00 | 86 | 1021.2 |
| 20260505112137 | 27 | 180 | 3.2 | 11.3 | 0.00 | 0.00 | 0.00 | 87 | 1020.9 |
| 20260505111631 | 27 | 155 | 6.4 | 6.4 | 0.00 | 0.00 | 0.00 | 86 | 1020.9 |
| 20260505111128 | 27 | 133 | 3.2 | 4.8 | 0.00 | 0.00 | 0.00 | 88 | 1020.8 |
| 20260505110624 | 27 | 141 | 3.2 | 9.7 | 0.00 | 0.00 | 0.00 | 89 | 1020.5 |
| 20260505110122 | 26 | 137 | 3.2 | 6.4 | 0.00 | 0.00 | 0.00 | 91 | 1020.8 |
| 20260505102057 | 24 | 133 | 0.0 | 3.2 | 0.00 | 0.00 | 0.00 | 98 | 1020.3 |
| 20260505101556 | 24 | 126 | 0.0 | 3.2 | 0.00 | 0.00 | 0.00 | 98 | 1020.1 |
| 20260505101051 | 24 | 130 | 1.6 | 3.2 | 0.00 | 0.00 | 0.00 | 98 | 1020.1 |
| 20260505100548 | 24 | 109 | 0.0 | 3.2 | 0.00 | 0.00 | 0.00 | 98 | 1020.0 |
| 20260505100045 | 24 | 126 | 1.6 | 3.2 | 0.00 | 0.00 | 0.00 | 98 | 1020.3 |
| 20260505095541 | 24 | 123 | 1.6 | 3.2 | 0.00 | 0.00 | 0.00 | 98 | 1020.0 |
| 20260505095038 | 24 | 144 | 0.0 | 1.6 | 0.00 | 0.00 | 0.00 | 98 | 1020.1 |
| 20260505094534 | 24 | 129 | 0.0 | 3.2 | 0.00 | 0.00 | 0.00 | 98 | 1020.0 |
| 20260505094031 | 24 | 133 | 1.6 | 3.2 | 0.00 | 0.00 | 0.00 | 98 | 1019.8 |
| 20260505093527 | 24 | 122 | 0.0 | 0.0 | 0.00 | 0.00 | 0.00 | 98 | 1019.9 |
| 20260505093025 | 24 | 116 | 0.0 | 0.0 | 0.00 | 0.00 | 0.00 | 98 | 1019.9 |
| 20260505092522 | 24 | 115 | 0.0 | 0.0 | 0.00 | 0.00 | 0.00 | 98 | 1020.0 |
| 20260505092020 | 24 | 124 | 0.0 | 0.0 | 0.00 | 0.00 | 0.00 | 98 | 1020.1 |
| 20260505091517 | 24 | 140 | 0.0 | 0.0 | 0.00 | 0.00 | 0.00 | 98 | 1019.9 |
| 20260505091015 | 24 | 142 | 0.0 | 0.0 | 0.00 | 0.00 | 0.00 | 98 | 1019.8 |
| 20260505090513 | 24 | 129 | 0.0 | 1.6 | 0.00 | 0.00 | 0.00 | 98 | 1020.0 |
| 20260505090010 | 24 | 120 | 0.0 | 0.0 | 0.00 | 0.00 | 0.00 | 98 | 1019.7 |
| 20260505085508 | 24 | 108 | 0.0 | 0.0 | 0.00 | 0.00 | 0.00 | 98 | 1019.8 |
| 20260505085006 | 25 | 107 | 0.0 | 0.0 | 0.00 | 0.00 | 0.00 | 99 | 1019.7 |
| 20260505084504 | 24 | 112 | 0.0 | 0.0 | 0.00 | 0.00 | 0.00 | 99 | 1019.6 |
| 20260505084002 | 24 | 111 | 0.0 | 0.0 | 0.00 | 0.00 | 0.00 | 99 | 1019.7 |
| 20260505083458 | 24 | 112 | 0.0 | 0.0 | 0.00 | 0.00 | 0.00 | 99 | 1019.5 |
| 20260505082955 | 24 | 110 | 0.0 | 0.0 | 0.00 | 0.00 | 0.00 | 99 | 1019.6 |
| 20260505082450 | 24 | 110 | 0.0 | 0.0 | 0.00 | 0.00 | 0.00 | 99 | 1019.6 |
| 20260505081948 | 24 | 106 | 0.0 | 0.0 | 0.00 | 0.00 | 0.00 | 99 | 1019.6 |
| 20260505081444 | 24 | 128 | 0.0 | 0.0 | 0.00 | 0.00 | 0.00 | 99 | 1019.5 |
| 20260505080941 | 24 | 134 | 0.0 | 0.0 | 0.00 | 0.00 | 0.00 | 99 | 1019.5 |
| 20260505080437 | 24 | 136 | 0.0 | 0.0 | 0.00 | 0.00 | 0.00 | 99 | 1019.4 |
| 20260505075933 | 24 | 137 | 0.0 | 0.0 | 0.00 | 0.00 | 0.00 | 99 | 1019.4 |
| 20260505075430 | 24 | 134 | 0.0 | 0.0 | 0.00 | 0.00 | 0.00 | 99 | 1019.5 |
| 20260505074927 | 24 | 135 | 0.0 | 0.0 | 0.00 | 0.00 | 0.00 | 99 | 1019.3 |
| 20260505074425 | 24 | 132 | 0.0 | 0.0 | 0.00 | 0.00 | 0.00 | 98 | 1019.3 |
| 20260505073921 | 24 | 131 | 0.0 | 0.0 | 0.00 | 0.00 | 0.00 | 98 | 1019.4 |
| 20260505073419 | 24 | 127 | 0.0 | 0.0 | 0.00 | 0.00 | 0.00 | 98 | 1019.4 |
| 20260505072916 | 25 | 125 | 0.0 | 0.0 | 0.00 | 0.00 | 0.00 | 98 | 1019.4 |
| 20260505072412 | 25 | 125 | 0.0 | 0.0 | 0.00 | 0.00 | 0.00 | 98 | 1019.6 |
| 20260505071909 | 25 | 130 | 0.0 | 0.0 | 0.00 | 0.00 | 0.00 | 98 | 1019.5 |
| 20260505071405 | 25 | 134 | 0.0 | 0.0 | 0.00 | 0.00 | 0.00 | 98 | 1019.4 |
| 20260505070903 | 25 | 129 | 0.0 | 0.0 | 0.00 | 0.00 | 0.00 | 98 | 1019.5 |
| 20260505070359 | 25 | 130 | 0.0 | 0.0 | 0.00 | 0.00 | 0.00 | 98 | 1019.2 |
| 20260505065855 | 25 | 119 | 0.0 | 0.0 | 0.00 | 0.00 | 0.00 | 98 | 1019.3 |
| 20260505065351 | 25 | 134 | 0.0 | 0.0 | 0.00 | 0.00 | 0.00 | 98 | 1019.5 |
| 20260505064848 | 25 | 117 | 0.0 | 0.0 | 0.00 | 0.00 | 0.00 | 98 | 1019.3 |
| 20260505064345 | 25 | 122 | 0.0 | 0.0 | 0.00 | 0.00 | 0.00 | 98 | 1019.6 |
| 20260505063844 | 25 | 123 | 0.0 | 1.6 | 0.00 | 0.00 | 0.00 | 98 | 1019.5 |
| 20260505063339 | 25 | 125 | 0.0 | 0.0 | 0.00 | 0.00 | 0.00 | 98 | 1019.6 |
| 20260505062836 | 25 | 140 | 0.0 | 0.0 | 0.00 | 0.00 | 0.00 | 98 | 1019.8 |
| 20260505062334 | 25 | 126 | 0.0 | 0.0 | 0.00 | 0.00 | 0.00 | 98 | 1019.7 |
| 20260505061830 | 25 | 126 | 0.0 | 0.0 | 0.00 | 0.00 | 0.00 | 98 | 1019.7 |
| 20260505061328 | 25 | 126 | 0.0 | 0.0 | 0.00 | 0.00 | 0.00 | 98 | 1019.8 |
| 20260505060826 | 25 | 125 | 0.0 | 0.0 | 0.00 | 0.00 | 0.00 | 97 | 1019.7 |
| 20260505060322 | 25 | 131 | 0.0 | 0.0 | 0.00 | 0.00 | 0.00 | 98 | 1019.8 |
| 20260505055818 | 25 | 125 | 0.0 | 0.0 | 0.00 | 0.00 | 0.00 | 98 | 1019.9 |
| 20260505055314 | 25 | 143 | 0.0 | 3.2 | 0.00 | 0.00 | 0.00 | 98 | 1020.0 |
| 20260505054812 | 25 | 133 | 0.0 | 0.0 | 0.00 | 0.00 | 0.00 | 98 | 1020.1 |
| 20260505054309 | 25 | 151 | 0.0 | 1.6 | 0.00 | 0.00 | 0.00 | 98 | 1019.9 |
| 20260505053807 | 25 | 139 | 0.0 | 0.0 | 0.00 | 0.00 | 0.00 | 98 | 1020.2 |
| 20260505053304 | 25 | 140 | 0.0 | 0.0 | 0.00 | 0.00 | 0.00 | 98 | 1020.1 |
| 20260505052801 | 25 | 144 | 0.0 | 0.0 | 0.00 | 0.00 | 0.00 | 98 | 1020.3 |
| 20260505052258 | 25 | 163 | 0.0 | 0.0 | 0.00 | 0.00 | 0.00 | 98 | 1020.1 |
| 20260505051754 | 25 | 123 | 0.0 | 0.0 | 0.00 | 0.00 | 0.00 | 98 | 1020.4 |
| 20260505051253 | 25 | 124 | 0.0 | 0.0 | 0.00 | 0.00 | 0.00 | 98 | 1020.4 |
| 20260505050750 | 25 | 114 | 0.0 | 0.0 | 0.00 | 0.00 | 0.00 | 98 | 1020.4 |
| 20260505050249 | 25 | 118 | 0.0 | 0.0 | 0.00 | 0.00 | 0.00 | 98 | 1020.5 |
| 20260505041718 | 25 | 120 | 0.0 | 0.0 | 0.00 | 0.00 | 0.00 | 98 | 1020.7 |
| 20260505041215 | 25 | 126 | 0.0 | 0.0 | 0.00 | 0.00 | 0.00 | 98 | 1021.0 |
| 20260505040713 | 25 | 121 | 0.0 | 1.6 | 0.00 | 0.00 | 0.00 | 98 | 1021.0 |
| 20260505040210 | 25 | 135 | 0.0 | 1.6 | 0.00 | 0.00 | 0.00 | 98 | 1021.0 |
| 20260505035707 | 25 | 146 | 1.6 | 1.6 | 0.00 | 0.58 | 0.58 | 98 | 1021.0 |
| 20260505035203 | 25 | 156 | 1.6 | 3.2 | 0.00 | 0.58 | 0.58 | 98 | 1021.0 |
| 20260505034659 | 25 | 145 | 0.0 | 3.2 | 0.00 | 0.58 | 0.58 | 98 | 1021.1 |
| 20260505034156 | 25 | 131 | 1.6 | 3.2 | 0.00 | 0.58 | 0.58 | 98 | 1021.3 |
| 20260505033652 | 25 | 166 | 1.6 | 3.2 | 0.00 | 0.58 | 0.58 | 98 | 1021.1 |
| 20260505033151 | 25 | 121 | 0.0 | 0.0 | 0.00 | 0.58 | 0.58 | 98 | 1021.1 |
| 20260505032649 | 25 | 110 | 0.0 | 0.0 | 0.00 | 0.58 | 0.58 | 98 | 1021.2 |
| 20260505032144 | 25 | 110 | 0.0 | 0.0 | 0.00 | 0.58 | 0.58 | 98 | 1021.2 |
| 20260505031642 | 25 | 109 | 0.0 | 0.0 | 0.00 | 0.58 | 0.58 | 98 | 1021.2 |
| 20260505031138 | 25 | 110 | 0.0 | 0.0 | 0.00 | 0.58 | 0.58 | 98 | 1021.2 |
| 20260505030635 | 25 | 110 | 0.0 | 0.0 | 0.00 | 0.58 | 0.58 | 98 | 1021.1 |
| 20260505030131 | 25 | 132 | 0.0 | 0.0 | 0.00 | 0.58 | 0.58 | 98 | 1021.3 |
| 20260505025627 | 25 | 112 | 0.0 | 0.0 | 0.00 | 0.58 | 0.58 | 98 | 1021.3 |
| 20260505025126 | 25 | 138 | 0.0 | 0.0 | 0.00 | 0.58 | 0.58 | 97 | 1021.0 |
| 20260505024623 | 25 | 129 | 0.0 | 0.0 | 0.00 | 0.58 | 0.58 | 97 | 1021.2 |
| 20260505024120 | 25 | 133 | 0.0 | 1.6 | 0.00 | 0.58 | 0.58 | 97 | 1021.2 |
| 20260505023617 | 25 | 130 | 0.0 | 0.0 | 0.00 | 0.58 | 0.58 | 97 | 1021.1 |
| 20260505023115 | 26 | 124 | 0.0 | 0.0 | 0.00 | 0.58 | 0.58 | 97 | 1021.1 |
| 20260505022612 | 25 | 103 | 0.0 | 0.0 | 0.00 | 0.58 | 0.58 | 97 | 1021.0 |
| 20260505022109 | 25 | 105 | 0.0 | 0.0 | 0.00 | 0.58 | 0.58 | 97 | 1021.0 |
| 20260505021605 | 25 | 111 | 0.0 | 0.0 | 0.00 | 0.58 | 0.58 | 97 | 1021.1 |
| 20260505021102 | 25 | 152 | 0.0 | 0.0 | 0.00 | 0.58 | 0.58 | 97 | 1021.0 |
| 20260505020603 | 25 | 122 | 0.0 | 3.2 | 0.00 | 0.58 | 0.58 | 97 | 1021.1 |
| 20260505020059 | 26 | 143 | 0.0 | 0.0 | 0.00 | 0.58 | 0.58 | 97 | 1021.1 |
| 20260505015556 | 26 | 127 | 0.0 | 1.6 | 0.00 | 0.58 | 0.58 | 97 | 1021.1 |
| 20260505015053 | 26 | 130 | 0.0 | 1.6 | 0.00 | 0.58 | 0.58 | 97 | 1021.0 |
| 20260505014549 | 26 | 124 | 4.8 | 6.4 | 0.00 | 0.58 | 0.58 | 96 | 1020.8 |
| 20260505014047 | 26 | 82 | 1.6 | 11.3 | 0.00 | 0.58 | 0.58 | 96 | 1020.7 |
| 20260505013544 | 26 | 109 | 3.2 | 6.4 | 0.00 | 0.58 | 0.58 | 97 | 1020.6 |
| 20260505013041 | 26 | 131 | 3.2 | 6.4 | 0.30 | 0.58 | 0.58 | 97 | 1020.7 |
| 20260505012539 | 26 | 128 | 4.8 | 4.8 | 0.48 | 0.58 | 0.58 | 96 | 1020.7 |
| 20260505012036 | 26 | 144 | 1.6 | 1.6 | 0.48 | 0.53 | 0.53 | 96 | 1020.5 |
| 20260505011537 | 26 | 133 | 1.6 | 1.6 | 0.30 | 0.51 | 0.51 | 95 | 1020.4 |
| 20260505011034 | 26 | 117 | 0.0 | 3.2 | 0.00 | 0.46 | 0.46 | 95 | 1020.4 |
| 20260505010529 | 26 | 118 | 0.0 | 4.8 | 0.00 | 0.46 | 0.46 | 96 | 1020.5 |
| 20260505010026 | 26 | 147 | 1.6 | 3.2 | 0.00 | 0.46 | 0.46 | 96 | 1020.4 |
| 20260505005523 | 26 | 134 | 1.6 | 1.6 | 0.00 | 0.46 | 0.46 | 97 | 1020.4 |
| 20260505005020 | 26 | 96 | 1.6 | 3.2 | 0.00 | 0.46 | 0.46 | 97 | 1020.4 |
| 20260505004517 | 26 | 140 | 3.2 | 4.8 | 0.00 | 0.46 | 0.46 | 97 | 1020.2 |
| 20260505004014 | 26 | 110 | 1.6 | 1.6 | 0.00 | 0.46 | 0.46 | 97 | 1020.3 |
| 20260505003511 | 26 | 140 | 3.2 | 3.2 | 0.00 | 0.46 | 0.46 | 97 | 1020.3 |
| 20260505003008 | 26 | 115 | 0.0 | 1.6 | 0.00 | 0.46 | 0.46 | 97 | 1020.2 |
| 20260505002503 | 26 | 158 | 1.6 | 1.6 | 0.00 | 0.46 | 0.46 | 97 | 1020.3 |
| 20260505002002 | 26 | 166 | 3.2 | 3.2 | 0.00 | 0.46 | 0.46 | 96 | 1020.2 |
| 20260505001459 | 26 | 167 | 3.2 | 3.2 | 0.00 | 0.46 | 0.46 | 96 | 1020.2 |
| 20260505000956 | 26 | 160 | 3.2 | 4.8 | 0.00 | 0.46 | 0.46 | 95 | 1020.1 |
| 20260505000454 | 26 | 127 | 1.6 | 3.2 | 0.00 | 0.46 | 0.46 | 94 | 1020.0 |
| 20260504235951 | 26 | 120 | 0.0 | 4.8 | 0.00 | 0.46 | 0.46 | 94 | 1020.2 |
| 20260504235448 | 26 | 143 | 3.2 | 3.2 | 0.00 | 0.46 | 0.46 | 95 | 1020.1 |
| 20260504234944 | 26 | 125 | 1.6 | 6.4 | 0.00 | 0.46 | 0.46 | 95 | 1020.1 |
| 20260504234441 | 26 | 116 | 3.2 | 4.8 | 0.00 | 0.46 | 0.46 | 95 | 1020.0 |
| 20260504233938 | 26 | 148 | 1.6 | 6.4 | 0.00 | 0.46 | 0.46 | 95 | 1019.9 |
| 20260504233434 | 26 | 140 | 1.6 | 1.6 | 0.00 | 0.46 | 0.46 | 96 | 1019.8 |
| 20260504232931 | 26 | 107 | 1.6 | 1.6 | 0.00 | 0.46 | 0.46 | 95 | 1019.8 |
| 20260504232428 | 26 | 119 | 0.0 | 0.0 | 0.00 | 0.46 | 0.46 | 96 | 1019.9 |
| 20260504231925 | 26 | 124 | 0.0 | 1.6 | 0.00 | 0.46 | 0.46 | 96 | 1019.7 |
| 20260504231421 | 26 | 130 | 3.2 | 4.8 | 0.00 | 0.46 | 0.46 | 96 | 1019.7 |
| 20260504230917 | 26 | 134 | 3.2 | 3.2 | 0.00 | 0.46 | 0.46 | 96 | 1019.7 |
| 20260504230415 | 26 | 160 | 4.8 | 6.4 | 0.00 | 0.46 | 0.46 | 95 | 1019.6 |
| 20260504225914 | 26 | 130 | 1.6 | 6.4 | 0.43 | 0.46 | 0.46 | 95 | 1019.7 |
| 20260504225410 | 26 | 137 | 4.8 | 6.4 | 0.43 | 0.46 | 0.46 | 95 | 1019.6 |
| 20260504224907 | 26 | 115 | 0.0 | 4.8 | 0.00 | 0.38 | 0.38 | 94 | 1019.6 |
| 20260504224404 | 26 | 126 | 3.2 | 3.2 | 0.00 | 0.38 | 0.38 | 95 | 1019.4 |
| 20260504223901 | 26 | 103 | 1.6 | 6.4 | 0.00 | 0.38 | 0.38 | 95 | 1019.4 |
| 20260504223356 | 26 | 143 | 0.0 | 1.6 | 0.00 | 0.38 | 0.38 | 95 | 1019.4 |
| 20260504222853 | 26 | 164 | 3.2 | 3.2 | 0.00 | 0.38 | 0.38 | 95 | 1019.3 |
| 20260504222350 | 26 | 117 | 0.0 | 3.2 | 0.00 | 0.38 | 0.38 | 96 | 1019.3 |
| 20260504221849 | 26 | 136 | 1.6 | 3.2 | 0.00 | 0.38 | 0.38 | 96 | 1019.2 |
| 20260504221345 | 26 | 117 | 3.2 | 3.2 | 0.00 | 0.38 | 0.38 | 96 | 1019.3 |
| 20260504220842 | 26 | 119 | 6.4 | 6.4 | 0.00 | 0.38 | 0.38 | 97 | 1019.3 |
| 20260504220339 | 26 | 125 | 3.2 | 3.2 | 0.00 | 0.38 | 0.38 | 97 | 1019.2 |
| 20260504215836 | 25 | 188 | 4.8 | 6.4 | 0.00 | 0.38 | 0.38 | 97 | 1019.2 |
| 20260504215332 | 26 | 151 | 4.8 | 4.8 | 0.00 | 0.38 | 0.38 | 97 | 1019.3 |
| 20260504214828 | 26 | 142 | 1.6 | 3.2 | 0.00 | 0.38 | 0.38 | 98 | 1019.3 |
| 20260504214326 | 26 | 141 | 1.6 | 3.2 | 0.00 | 0.38 | 0.38 | 98 | 1019.3 |
| 20260504213822 | 26 | 133 | 3.2 | 4.8 | 0.00 | 0.38 | 0.38 | 97 | 1019.2 |
| 20260504213318 | 25 | 119 | 1.6 | 3.2 | 0.18 | 0.38 | 0.38 | 98 | 1019.4 |
| 20260504212816 | 26 | 118 | 3.2 | 3.2 | 0.18 | 0.38 | 0.38 | 97 | 1019.3 |
| 20260504212312 | 26 | 130 | 3.2 | 4.8 | 0.13 | 0.36 | 0.36 | 97 | 1019.3 |
| 20260504211810 | 25 | 124 | 3.2 | 6.4 | 0.13 | 0.36 | 0.36 | 97 | 1019.1 |
| 20260504211305 | 26 | 102 | 1.6 | 11.3 | 0.00 | 0.33 | 0.33 | 97 | 1019.1 |
| 20260504210803 | 26 | 68 | 4.8 | 9.7 | 0.00 | 0.33 | 0.33 | 96 | 1019.0 |
| 20260504210300 | 26 | 99 | 0.0 | 4.8 | 0.00 | 0.33 | 0.33 | 96 | 1018.9 |
| 20260504205757 | 26 | 69 | 4.8 | 4.8 | 0.00 | 0.33 | 0.33 | 96 | 1018.9 |
| 20260504205255 | 26 | 119 | 3.2 | 4.8 | 0.00 | 0.33 | 0.33 | 96 | 1019.0 |
| 20260504204753 | 26 | 143 | 1.6 | 6.4 | 0.00 | 0.33 | 0.33 | 97 | 1018.9 |
| 20260504204251 | 26 | 142 | 3.2 | 4.8 | 0.00 | 0.33 | 0.33 | 96 | 1018.9 |
| 20260504203750 | 26 | 125 | 0.0 | 3.2 | 0.00 | 0.33 | 0.33 | 97 | 1019.1 |
| 20260504203247 | 26 | 120 | 3.2 | 3.2 | 0.00 | 0.33 | 0.33 | 96 | 1019.2 |
| 20260504202747 | 26 | 131 | 1.6 | 1.6 | 0.48 | 0.33 | 0.33 | 97 | 1019.1 |
| 20260504202244 | 26 | 142 | 1.6 | 3.2 | 1.85 | 0.33 | 0.33 | 96 | 1019.2 |
| 20260504201741 | 26 | 84 | 4.8 | 4.8 | 1.02 | 0.18 | 0.18 | 94 | 1019.3 |
| 20260504201238 | 27 | 135 | 8.0 | 14.5 | 0.00 | 0.00 | 0.00 | 90 | 1019.3 |
| 20260504200736 | 26 | 146 | 3.2 | 6.4 | 0.00 | 0.00 | 0.00 | 90 | 1019.3 |
| 20260504200232 | 26 | 165 | 3.2 | 6.4 | 0.00 | 0.00 | 0.00 | 92 | 1019.3 |
| 20260504195728 | 26 | 173 | 3.2 | 6.4 | 0.00 | 0.00 | 0.00 | 93 | 1019.2 |
| 20260504195224 | 26 | 176 | 8.0 | 14.5 | 0.00 | 0.00 | 0.00 | 92 | 1019.2 |
| 20260504194722 | 26 | 191 | 9.7 | 11.3 | 0.00 | 0.00 | 0.00 | 92 | 1019.2 |
| 20260504194218 | 26 | 175 | 8.0 | 14.5 | 0.00 | 0.00 | 0.00 | 91 | 1019.4 |
| 20260504193714 | 27 | 196 | 12.9 | 16.1 | 0.00 | 0.00 | 0.00 | 88 | 1019.1 |
| 20260504193212 | 28 | 122 | 9.7 | 22.5 | 0.00 | 0.00 | 0.00 | 84 | 1019.4 |
| 20260504192710 | 30 | 124 | 8.0 | 20.9 | 0.00 | 0.00 | 0.00 | 80 | 1019.2 |
| 20260504192208 | 29 | 144 | 12.9 | 16.1 | 0.00 | 0.00 | 0.00 | 79 | 1019.4 |
| 20260504191706 | 29 | 70 | 8.0 | 22.5 | 0.00 | 0.00 | 0.00 | 81 | 1019.3 |
| 20260504191202 | 30 | 104 | 12.9 | 17.7 | 0.00 | 0.00 | 0.00 | 77 | 1019.2 |
| 20260504190658 | 30 | 77 | 3.2 | 24.1 | 0.00 | 0.00 | 0.00 | 78 | 1019.2 |
| 20260504190154 | 30 | 78 | 3.2 | 9.7 | 0.00 | 0.00 | 0.00 | 76 | 1019.3 |
| 20260504185651 | 30 | 158 | 6.4 | 29.0 | 0.00 | 0.00 | 0.00 | 77 | 1019.3 |
| 20260504185148 | 31 | 201 | 3.2 | 14.5 | 0.00 | 0.00 | 0.00 | 75 | 1019.3 |
| 20260504184644 | 31 | 163 | 3.2 | 6.4 | 0.00 | 0.00 | 0.00 | 75 | 1019.4 |
| 20260504184139 | 30 | 76 | 4.8 | 12.9 | 0.00 | 0.00 | 0.00 | 76 | 1019.3 |
| 20260504183636 | 30 | 53 | 9.7 | 20.9 | 0.00 | 0.00 | 0.00 | 79 | 1019.5 |
| 20260504183134 | 30 | 55 | 6.4 | 11.3 | 0.00 | 0.00 | 0.00 | 77 | 1019.4 |
| 20260504182631 | 30 | 186 | 1.6 | 14.5 | 0.00 | 0.00 | 0.00 | 77 | 1019.7 |
| 20260504182128 | 30 | 178 | 6.4 | 17.7 | 0.00 | 0.00 | 0.00 | 79 | 1019.7 |
| 20260504181626 | 30 | 143 | 6.4 | 14.5 | 0.00 | 0.00 | 0.00 | 78 | 1019.6 |
| 20260504181123 | 29 | 79 | 12.9 | 20.9 | 0.00 | 0.00 | 0.00 | 79 | 1019.7 |
| 20260504180622 | 30 | 70 | 4.8 | 17.7 | 0.00 | 0.00 | 0.00 | 79 | 1019.9 |
| 20260504180121 | 29 | 61 | 6.4 | 16.1 | 0.00 | 0.00 | 0.00 | 81 | 1019.8 |
| 20260504175618 | 30 | 137 | 8.0 | 17.7 | 0.00 | 0.00 | 0.00 | 80 | 1019.8 |
| 20260504175114 | 30 | 126 | 6.4 | 17.7 | 0.00 | 0.00 | 0.00 | 78 | 1020.0 |
| 20260504174612 | 30 | 167 | 6.4 | 16.1 | 0.00 | 0.00 | 0.00 | 80 | 1020.0 |
| 20260504174108 | 29 | 156 | 3.2 | 20.9 | 0.00 | 0.00 | 0.00 | 80 | 1020.1 |
| 20260504173605 | 30 | 36 | 6.4 | 16.1 | 0.00 | 0.00 | 0.00 | 79 | 1020.1 |
| 20260504173103 | 30 | 98 | 6.4 | 20.9 | 0.00 | 0.00 | 0.00 | 77 | 1020.1 |
| 20260504172559 | 30 | 89 | 14.5 | 20.9 | 0.00 | 0.00 | 0.00 | 75 | 1020.4 |
| 20260504172056 | 30 | 57 | 8.0 | 14.5 | 0.00 | 0.00 | 0.00 | 75 | 1020.3 |
| 20260504171552 | 30 | 117 | 9.7 | 16.1 | 0.00 | 0.00 | 0.00 | 75 | 1020.5 |
| 20260504171050 | 30 | 125 | 4.8 | 11.3 | 0.00 | 0.00 | 0.00 | 76 | 1020.3 |
| 20260504170545 | 30 | 84 | 11.3 | 24.1 | 0.00 | 0.00 | 0.00 | 76 | 1020.5 |
| 20260504150929 | 29 | 119 | 17.7 | 27.4 | 0.00 | 0.00 | 0.00 | 76 | 1021.2 |
| 20260504150426 | 29 | 113 | 6.4 | 20.9 | 0.00 | 0.00 | 0.00 | 77 | 1021.2 |